Time;durP1;ratioP1;P1;durP2;ratioP2;P2;SDS_P1;SDS_P2;PMS_P1;PMS_P2;Temp;Humidity;BMP_temperature;BMP_pressure;BME280_temperature;BME280_humidity;BME280_pressure;Samples;Min_cycle;Max_cycle;Signal;HPM_P1;HPM_P2
2022/09/17 00:00:50;;;;;;;6.80;3.85;;;;;;;22.95;59.46;94148.91;4992875;28;20037;-61
2022/09/17 00:03:15;;;;;;;5.78;3.20;;;;;;;22.84;60.31;94126.59;4995262;28;20093;-62
2022/09/17 00:05:41;;;;;;;7.88;3.25;;;;;;;22.65;59.99;94098.78;4993555;28;20014;-61
2022/09/17 00:08:08;;;;;;;5.10;2.90;;;;;;;22.98;59.43;94137.69;5002337;28;20482;-60
2022/09/17 00:10:37;;;;;;;6.45;3.55;;;;;;;22.99;58.82;94073.81;4983319;28;20036;-61
2022/09/17 00:13:03;;;;;;;7.00;2.92;;;;;;;23.27;58.35;94108.56;4982049;28;20692;-61
2022/09/17 00:15:29;;;;;;;6.63;3.13;;;;;;;22.71;58.21;94036.81;4988807;28;20045;-61
2022/09/17 00:17:57;;;;;;;7.70;3.22;;;;;;;22.91;59.57;94094.75;5001449;28;20055;-61
2022/09/17 00:20:24;;;;;;;5.85;3.00;;;;;;;22.79;58.90;94064.84;5002374;28;20052;-60
2022/09/17 00:22:49;;;;;;;6.80;3.10;;;;;;;22.85;59.06;94089.94;5001000;28;20034;-60
2022/09/17 00:25:15;;;;;;;5.57;3.30;;;;;;;22.74;59.69;94092.91;4996572;28;20048;-62
2022/09/17 00:27:40;;;;;;;7.38;2.78;;;;;;;22.91;59.09;94102.91;4982275;28;20122;-61
2022/09/17 00:30:07;;;;;;;6.70;3.15;;;;;;;22.62;59.60;94078.06;4973574;28;20035;-61
2022/09/17 00:32:32;;;;;;;7.28;3.10;;;;;;;23.01;58.35;94074.00;4968027;28;20668;-60
2022/09/17 00:34:58;;;;;;;9.10;3.63;;;;;;;22.59;58.59;94041.03;4985171;28;20047;-61
2022/09/17 00:37:23;;;;;;;5.53;3.03;;;;;;;22.32;59.15;94039.63;5000979;28;20518;-60
2022/09/17 00:39:49;;;;;;;6.10;2.75;;;;;;;22.44;59.60;94068.06;4989718;28;20144;-62
2022/09/17 00:42:14;;;;;;;5.03;3.15;;;;;;;22.63;58.63;94084.97;4985233;28;20497;-61
2022/09/17 00:44:50;;;;;;;8.93;3.03;;;;;;;22.99;58.61;94133.72;4991407;28;20042;-61
2022/09/17 00:47:18;;;;;;;5.93;3.05;;;;;;;22.95;58.99;94116.94;4982033;28;20085;-60
2022/09/17 00:49:44;;;;;;;7.00;3.30;;;;;;;22.81;59.08;94127.63;4999950;28;20038;-61
2022/09/17 00:52:13;;;;;;;5.63;3.15;;;;;;;22.78;59.36;94112.34;4984218;28;20037;-61
2022/09/17 00:54:39;;;;;;;5.50;2.80;;;;;;;22.70;58.69;94078.88;4967554;28;20042;-61
2022/09/17 00:57:06;;;;;;;5.15;2.80;;;;;;;22.58;59.07;94083.09;4966189;28;20038;-61
2022/09/17 00:59:32;;;;;;;6.45;3.03;;;;;;;22.94;58.67;94112.78;4984102;28;20046;-60
2022/09/17 01:01:57;;;;;;;5.93;3.10;;;;;;;22.64;59.15;94097.31;4957521;28;20053;-61
2022/09/17 01:04:24;;;;;;;6.28;3.00;;;;;;;22.78;59.11;94128.69;4969135;28;20042;-61
2022/09/17 01:07:01;;;;;;;6.47;3.10;;;;;;;22.88;59.12;94132.44;4988549;28;20030;-61
2022/09/17 01:09:44;;;;;;;7.20;3.13;;;;;;;22.69;59.69;94131.84;4998453;28;20049;-61
2022/09/17 01:12:16;;;;;;;5.53;3.35;;;;;;;22.76;59.80;94131.22;4960274;28;20037;-61
2022/09/17 01:14:44;;;;;;;6.50;3.38;;;;;;;22.83;59.69;94131.31;4984898;28;20085;-60
2022/09/17 01:17:23;;;;;;;5.22;3.10;;;;;;;23.04;58.75;94108.34;5000911;28;20477;-60
2022/09/17 01:19:48;;;;;;;7.88;3.67;;;;;;;22.81;59.66;94116.75;4981534;28;20184;-60
2022/09/17 01:22:35;;;;;;;5.65;2.97;;;;;;;22.82;59.49;94096.44;4979997;28;20121;-60
2022/09/17 01:25:00;;;;;;;6.95;3.35;;;;;;;22.94;59.39;94114.75;4966184;28;20232;-61
2022/09/17 01:27:32;;;;;;;6.05;3.00;;;;;;;22.78;60.11;94104.19;5001003;28;20517;-61
2022/09/17 01:30:16;;;;;;;6.55;3.15;;;;;;;22.73;59.82;94111.22;4997441;28;20030;-60
2022/09/17 01:33:01;;;;;;;6.30;3.08;;;;;;;22.43;59.93;94055.69;4976672;28;20060;-60
2022/09/17 01:35:51;;;;;;;6.75;3.17;;;;;;;22.73;60.20;94110.50;4984086;28;20140;-60
2022/09/17 01:38:59;;;;;;;8.38;3.28;;;;;;;22.68;60.36;94103.19;5001258;28;20038;-60
2022/09/17 01:41:29;;;;;;;7.40;3.13;;;;;;;22.59;60.83;94095.44;4973657;28;20132;-61
2022/09/17 01:44:00;;;;;;;7.10;3.80;;;;;;;22.38;60.13;94037.50;4972333;28;20049;-60
2022/09/17 01:46:48;;;;;;;7.22;3.60;;;;;;;21.84;60.70;93967.91;4963602;28;20050;-60
2022/09/17 01:49:14;;;;;;;8.02;3.70;;;;;;;22.71;59.26;93998.72;4966741;28;20046;-61
2022/09/17 01:51:41;;;;;;;6.05;3.08;;;;;;;22.88;59.45;94030.47;4967258;28;20054;-60
2022/09/17 01:54:50;;;;;;;6.88;3.13;;;;;;;22.83;59.98;94081.59;4968326;28;20116;-60
2022/09/17 01:57:26;;;;;;;9.02;3.30;;;;;;;22.82;60.12;94118.22;5000131;28;20518;-61
2022/09/17 01:59:58;;;;;;;5.97;3.45;;;;;;;22.54;60.28;94060.91;4965522;28;20030;-60
2022/09/17 02:02:30;;;;;;;5.85;3.17;;;;;;;22.37;59.53;93987.09;4978080;28;20149;-60
2022/09/17 02:04:59;;;;;;;6.50;3.50;;;;;;;22.92;60.45;94112.53;4995593;28;20038;-60
2022/09/17 02:07:26;;;;;;;7.35;3.53;;;;;;;22.03;60.45;93953.69;4967195;28;20041;-60
2022/09/17 02:10:04;;;;;;;5.10;3.00;;;;;;;22.78;60.10;94034.19;4998468;28;20254;-60
2022/09/17 02:12:34;;;;;;;6.70;3.40;;;;;;;22.11;60.68;93937.44;4967774;28;20032;-60
2022/09/17 02:15:01;;;;;;;5.47;3.28;;;;;;;22.88;60.21;94019.59;4983895;28;20048;-60
2022/09/17 02:18:05;;;;;;;7.13;3.17;;;;;;;22.76;60.62;93973.34;4965231;28;20097;-60
2022/09/17 02:20:37;;;;;;;7.00;3.42;;;;;;;22.92;60.07;93981.84;4907167;29;20123;-61
2022/09/17 02:23:07;;;;;;;7.40;3.40;;;;;;;22.29;60.27;93872.06;4981100;28;20037;-61
2022/09/17 02:25:36;;;;;;;6.05;3.38;;;;;;;22.88;60.61;93971.84;4982425;28;20038;-60
2022/09/17 02:28:38;;;;;;;5.10;3.00;;;;;;;22.45;60.06;93858.06;4977102;28;20443;-60
2022/09/17 02:31:03;;;;;;;6.50;3.10;;;;;;;22.87;60.48;93949.34;4967526;28;20413;-61
2022/09/17 02:33:29;;;;;;;9.30;3.10;;;;;;;22.84;60.82;93979.59;4987566;28;20045;-60
2022/09/17 02:35:55;;;;;;;6.32;3.30;;;;;;;22.71;60.49;93972.22;5000742;28;20033;-61
2022/09/17 02:38:24;;;;;;;6.00;3.20;;;;;;;22.66;60.78;93994.84;4992026;28;20824;-60
2022/09/17 02:40:53;;;;;;;5.75;3.17;;;;;;;22.88;60.58;94007.22;4976589;28;20038;-60
2022/09/17 02:43:28;;;;;;;6.00;2.85;;;;;;;22.66;60.27;93953.28;4975288;28;20029;-60
2022/09/17 02:46:02;;;;;;;7.40;3.15;;;;;;;22.60;60.47;93967.03;4960358;28;20504;-61
2022/09/17 02:48:41;;;;;;;6.88;2.95;;;;;;;22.83;59.80;93942.75;4962512;28;20524;-61
2022/09/17 02:51:13;;;;;;;6.07;2.80;;;;;;;22.84;59.50;93949.66;4966998;28;20034;-60
2022/09/17 02:53:45;;;;;;;6.97;3.08;;;;;;;23.02;59.50;93980.16;4983241;28;20533;-63
2022/09/17 02:56:45;;;;;;;5.97;2.83;;;;;;;22.76;59.78;94000.56;4982122;28;20038;-60
2022/09/17 02:59:14;;;;;;;6.75;3.08;;;;;;;22.78;60.03;93998.03;4950151;28;20125;-59
2022/09/17 03:01:44;;;;;;;5.88;2.60;;;;;;;22.73;60.32;93974.41;4990663;28;20049;-59
2022/09/17 03:04:11;;;;;;;6.05;3.00;;;;;;;22.33;59.66;93867.03;4962804;28;20038;-59
2022/09/17 03:06:37;;;;;;;6.05;3.10;;;;;;;22.68;59.60;93918.13;4963607;28;20577;-59
2022/09/17 03:09:02;;;;;;;5.45;2.80;;;;;;;22.46;60.10;93913.19;5000661;28;20084;-60
2022/09/17 03:11:28;;;;;;;6.22;2.55;;;;;;;22.14;59.50;93822.94;4999635;28;20038;-60
2022/09/17 03:13:53;;;;;;;5.63;2.63;;;;;;;22.15;60.17;93873.34;4986107;28;20026;-59
2022/09/17 03:16:19;;;;;;;8.70;2.97;;;;;;;22.66;59.70;93942.41;4996572;28;20105;-60
2022/09/17 03:18:44;;;;;;;6.95;2.65;;;;;;;22.35;59.84;93929.78;4985082;28;20096;-61
2022/09/17 03:21:11;;;;;;;6.25;2.50;;;;;;;22.75;59.96;93961.00;4996049;28;20421;-61
2022/09/17 03:23:36;;;;;;;7.50;2.55;;;;;;;22.50;59.66;93913.59;5003544;28;20038;-60
2022/09/17 03:26:02;;;;;;;7.50;2.53;;;;;;;22.43;60.35;93914.25;4982998;28;20048;-60
2022/09/17 03:28:27;;;;;;;6.80;2.60;;;;;;;22.31;59.67;93874.97;4999158;28;20146;-60
2022/09/17 03:30:53;;;;;;;10.00;2.55;;;;;;;21.95;60.47;93860.41;4998090;28;20529;-61
2022/09/17 03:33:18;;;;;;;7.25;2.90;;;;;;;22.54;60.58;93946.63;4969648;28;20419;-60
2022/09/17 03:35:44;;;;;;;4.03;2.40;;;;;;;22.70;59.99;93956.41;4986230;28;20045;-60
2022/09/17 03:38:10;;;;;;;5.25;2.58;;;;;;;22.25;59.63;93866.19;4995061;28;20140;-61
2022/09/17 03:40:35;;;;;;;5.47;2.47;;;;;;;22.65;60.45;93968.16;5003374;28;20034;-61
2022/09/17 03:43:01;;;;;;;4.15;2.25;;;;;;;22.85;59.86;93921.91;4995492;28;20038;-60
2022/09/17 03:45:26;;;;;;;6.63;2.70;;;;;;;22.76;59.57;93913.47;4984892;28;20034;-60
2022/09/17 03:47:52;;;;;;;5.38;2.80;;;;;;;22.46;60.06;93905.03;4985461;28;20084;-60
2022/09/17 03:50:17;;;;;;;4.35;2.45;;;;;;;22.60;60.30;93933.63;4992546;28;20505;-60
2022/09/17 03:52:43;;;;;;;6.05;2.72;;;;;;;22.36;60.55;93855.09;4997691;28;20038;-61
2022/09/17 03:55:08;;;;;;;5.57;2.80;;;;;;;22.35;60.26;93880.09;4990232;28;20064;-61
2022/09/17 03:57:34;;;;;;;6.82;2.45;;;;;;;22.31;60.26;93893.28;5002757;28;20044;-60
2022/09/17 03:59:59;;;;;;;9.80;2.67;;;;;;;22.07;60.22;93837.16;5003594;28;20447;-60
2022/09/17 04:02:25;;;;;;;7.03;2.60;;;;;;;22.39;60.07;93894.81;4991294;28;20525;-61
2022/09/17 04:04:51;;;;;;;7.18;2.85;;;;;;;22.19;60.50;93890.03;4996124;28;20478;-60
2022/09/17 04:07:17;;;;;;;3.05;2.22;;;;;;;22.02;60.75;93869.94;4992216;28;20088;-61
2022/09/17 04:09:42;;;;;;;7.18;2.40;;;;;;;22.53;61.32;93956.06;5003162;28;20503;-60
2022/09/17 04:12:08;;;;;;;5.40;2.55;;;;;;;22.39;61.32;93940.31;5002843;28;20037;-61
2022/09/17 04:14:33;;;;;;;6.55;2.75;;;;;;;22.24;61.30;93918.41;4983455;28;20049;-61
2022/09/17 04:16:59;;;;;;;5.30;2.35;;;;;;;22.09;60.41;93858.38;4992306;28;20523;-60
2022/09/17 04:19:24;;;;;;;7.18;2.78;;;;;;;22.74;60.80;93997.66;4993911;28;20034;-60
2022/09/17 04:21:50;;;;;;;6.30;3.08;;;;;;;22.69;60.18;93995.78;5002155;28;20078;-61
2022/09/17 04:24:15;;;;;;;4.47;2.15;;;;;;;22.73;60.61;94017.97;4993370;28;20040;-60
2022/09/17 04:26:41;;;;;;;5.78;2.90;;;;;;;22.64;60.83;94038.16;5002502;28;20076;-60
2022/09/17 04:29:06;;;;;;;5.75;2.75;;;;;;;22.65;60.72;94044.38;4983652;28;20637;-60
2022/09/17 04:31:31;;;;;;;6.55;2.70;;;;;;;22.70;61.31;94046.94;4988977;28;20053;-61
2022/09/17 04:33:57;;;;;;;5.82;2.58;;;;;;;22.38;61.24;94010.31;4986955;28;20189;-61
2022/09/17 04:36:22;;;;;;;5.68;2.50;;;;;;;22.31;61.25;94010.94;4998054;28;20537;-61
2022/09/17 04:38:48;;;;;;;6.75;2.72;;;;;;;22.64;61.40;94067.38;4978138;28;20739;-62
2022/09/17 04:41:13;;;;;;;5.20;2.38;;;;;;;22.68;61.17;94065.09;4977371;28;20050;-60
2022/09/17 04:43:39;;;;;;;6.13;2.70;;;;;;;21.16;61.18;93884.72;4983187;28;20046;-61
2022/09/17 04:46:05;;;;;;;7.10;2.83;;;;;;;22.92;61.10;94101.66;4996155;28;20034;-59
2022/09/17 04:48:30;;;;;;;5.75;2.42;;;;;;;22.67;60.85;94052.72;4981724;28;20136;-60
2022/09/17 04:50:56;;;;;;;9.57;2.67;;;;;;;22.83;60.79;94076.13;4996631;28;20485;-61
2022/09/17 04:53:21;;;;;;;6.47;2.70;;;;;;;23.00;60.49;94107.94;4988083;28;20046;-62
2022/09/17 04:55:47;;;;;;;3.95;2.70;;;;;;;22.84;61.09;94102.09;4981449;28;20426;-61
2022/09/17 04:58:12;;;;;;;5.07;2.50;;;;;;;22.88;61.07;94105.22;4980228;28;20080;-60
2022/09/17 05:00:38;;;;;;;5.18;2.67;;;;;;;22.91;60.78;94121.97;4979934;28;20434;-61
2022/09/17 05:03:03;;;;;;;4.80;2.47;;;;;;;23.05;60.57;94119.97;4961740;28;20030;-60
2022/09/17 05:05:29;;;;;;;5.28;2.47;;;;;;;23.19;59.88;94107.78;4980116;28;20866;-60
2022/09/17 05:07:54;;;;;;;8.80;2.70;;;;;;;22.52;59.30;93979.81;4980730;28;20089;-63
2022/09/17 05:10:20;;;;;;;5.45;2.45;;;;;;;22.88;60.07;94039.91;4981684;28;20046;-64
2022/09/17 05:12:50;;;;;;;5.35;2.25;;;;;;;22.93;60.07;94059.59;4963796;28;20430;-62
2022/09/17 05:15:16;;;;;;;5.20;1.90;;;;;;;23.23;59.96;94108.91;4981534;28;20480;-62
2022/09/17 05:17:41;;;;;;;7.38;2.20;;;;;;;22.96;59.55;94039.47;4980516;28;20033;-64
2022/09/17 05:20:07;;;;;;;5.88;2.13;;;;;;;23.39;59.47;94088.72;4981083;28;20038;-61
2022/09/17 05:22:32;;;;;;;7.65;2.03;;;;;;;23.32;59.45;94075.78;4980925;28;20439;-61
2022/09/17 05:24:58;;;;;;;3.75;1.98;;;;;;;23.22;58.94;94031.19;4981287;28;20117;-63
2022/09/17 05:27:23;;;;;;;5.72;1.90;;;;;;;23.02;59.12;93985.63;4980044;28;20096;-63
2022/09/17 05:29:49;;;;;;;6.75;1.88;;;;;;;23.16;59.16;94022.41;4960784;28;20874;-62
2022/09/17 05:32:14;;;;;;;4.80;1.60;;;;;;;23.02;58.92;93974.72;4980481;28;20041;-62
2022/09/17 05:34:40;;;;;;;4.55;1.42;;;;;;;23.55;58.82;94052.16;4979182;28;20784;-62
2022/09/17 05:37:08;;;;;;;4.88;1.60;;;;;;;23.73;58.26;94056.69;4978329;28;20034;-61
2022/09/17 05:39:33;;;;;;;5.90;1.60;;;;;;;23.37;58.42;94004.78;4962573;28;20463;-60
2022/09/17 05:41:59;;;;;;;6.40;2.25;;;;;;;23.15;59.20;93960.28;4994011;28;20037;-60
2022/09/17 05:44:24;;;;;;;5.57;2.05;;;;;;;23.83;59.33;94044.78;5000576;28;20545;-60
2022/09/17 05:46:51;;;;;;;7.63;2.20;;;;;;;24.20;59.00;94083.22;4983833;28;20077;-61
2022/09/17 05:49:17;;;;;;;5.43;2.17;;;;;;;24.25;58.77;94068.69;4983498;28;20047;-60
2022/09/17 05:51:42;;;;;;;6.68;2.30;;;;;;;24.32;57.85;94051.63;4986273;28;20042;-61
2022/09/17 05:54:08;;;;;;;8.02;2.38;;;;;;;23.80;58.93;94012.41;4985805;28;20026;-60
2022/09/17 05:56:34;;;;;;;5.47;2.17;;;;;;;24.12;58.57;94076.22;4978444;28;20066;-60
2022/09/17 05:58:59;;;;;;;6.43;3.17;;;;;;;24.40;58.32;94074.25;4981788;28;20046;-59
2022/09/17 06:01:25;;;;;;;6.90;3.10;;;;;;;24.42;58.30;94060.78;4983611;28;20515;-60
2022/09/17 06:03:50;;;;;;;10.60;2.55;;;;;;;24.55;57.74;94044.28;4981525;28;20037;-62
2022/09/17 06:06:16;;;;;;;7.03;2.50;;;;;;;24.77;57.52;94068.19;4978601;28;20018;-60
2022/09/17 06:08:41;;;;;;;5.88;2.45;;;;;;;24.59;56.62;94037.22;4979068;28;20010;-61
2022/09/17 06:11:07;;;;;;;6.15;2.55;;;;;;;24.86;56.87;94077.34;4978938;28;20508;-60
2022/09/17 06:13:32;;;;;;;7.25;2.72;;;;;;;24.12;56.50;93946.03;4980072;28;20424;-62
2022/09/17 06:15:58;;;;;;;8.63;2.30;;;;;;;25.08;56.61;94087.66;4981257;28;20038;-62
2022/09/17 06:18:24;;;;;;;7.15;2.63;;;;;;;24.96;56.66;94097.44;4974990;28;20081;-62
2022/09/17 06:20:54;;;;;;;9.15;2.75;;;;;;;24.88;57.09;94096.66;4978403;28;20415;-61
2022/09/17 06:23:20;;;;;;;8.15;2.50;;;;;;;24.98;56.97;94116.72;4977922;28;20038;-62
2022/09/17 06:25:56;;;;;;;6.35;2.53;;;;;;;25.10;56.66;94134.28;4978310;28;20129;-61
2022/09/17 06:28:22;;;;;;;6.90;2.90;;;;;;;24.87;56.68;94108.88;4975054;28;20069;-61
2022/09/17 06:30:47;;;;;;;7.03;2.80;;;;;;;24.93;56.94;94158.59;4977791;28;20830;-62
2022/09/17 06:33:13;;;;;;;7.20;2.60;;;;;;;24.53;55.92;94088.50;4992050;28;20486;-62
2022/09/17 06:35:39;;;;;;;6.13;2.42;;;;;;;24.74;55.96;94123.91;4982267;28;20527;-61
2022/09/17 06:38:04;;;;;;;6.32;2.25;;;;;;;24.90;56.60;94154.22;4983554;28;20531;-61
2022/09/17 06:40:30;;;;;;;7.45;2.58;;;;;;;24.80;55.54;94116.28;4970109;28;20049;-61
2022/09/17 06:42:58;;;;;;;7.20;2.42;;;;;;;25.39;55.08;94179.38;4988193;28;20026;-62
2022/09/17 06:45:25;;;;;;;6.38;2.15;;;;;;;25.13;54.95;94138.66;4969245;28;20018;-61
2022/09/17 06:47:50;;;;;;;5.97;2.25;;;;;;;24.87;55.04;94065.16;4979330;28;20104;-62
2022/09/17 06:50:16;;;;;;;5.55;1.95;;;;;;;25.22;54.32;94086.22;4983392;28;20038;-61
2022/09/17 06:52:51;;;;;;;6.78;1.90;;;;;;;25.58;54.21;94127.84;4983396;28;20027;-61
2022/09/17 06:55:17;;;;;;;5.13;1.80;;;;;;;25.34;53.81;94092.81;4982731;28;20030;-61
2022/09/17 06:57:42;;;;;;;6.90;1.75;;;;;;;25.11;54.11;94042.84;4980197;28;20132;-62
2022/09/17 07:00:09;;;;;;;5.72;1.90;;;;;;;25.62;53.85;94087.94;4984153;28;20018;-61
2022/09/17 07:02:34;;;;;;;5.40;2.13;;;;;;;25.68;53.80;94106.91;4982357;28;20389;-61
2022/09/17 07:05:00;;;;;;;5.47;1.63;;;;;;;25.64;53.87;94114.72;4965178;28;20495;-61
2022/09/17 07:07:26;;;;;;;4.82;1.90;;;;;;;25.27;53.63;94027.94;4986828;28;20034;-62
2022/09/17 07:09:54;;;;;;;5.85;1.83;;;;;;;25.89;53.02;94076.09;4993561;28;20103;-62
2022/09/17 07:12:20;;;;;;;5.47;1.98;;;;;;;25.82;53.09;94065.16;5003093;28;20072;-62
2022/09/17 07:14:46;;;;;;;4.90;1.70;;;;;;;25.87;53.57;94067.72;4997504;28;20511;-62
2022/09/17 07:17:13;;;;;;;6.32;2.10;;;;;;;25.80;53.59;94041.09;4982315;28;20100;-61
2022/09/17 07:19:38;;;;;;;7.50;2.40;;;;;;;25.19;54.19;93961.63;4962776;28;20427;-61
2022/09/17 07:22:04;;;;;;;7.85;2.40;;;;;;;24.18;56.99;93971.16;4984139;28;20112;-62
2022/09/17 07:24:29;;;;;;;4.43;2.10;;;;;;;25.52;54.94;94009.72;4983927;28;20065;-62
2022/09/17 07:26:55;;;;;;;7.28;2.30;;;;;;;25.06;56.01;94030.09;4999101;28;20026;-61
2022/09/17 07:29:22;;;;;;;6.75;2.28;;;;;;;25.27;55.49;94047.06;5001646;28;20149;-62
2022/09/17 07:31:47;;;;;;;3.95;1.83;;;;;;;24.98;54.64;93952.13;4991009;28;20046;-61
2022/09/17 07:34:13;;;;;;;8.43;2.90;;;;;;;25.98;53.94;94061.88;5003402;28;20034;-62
2022/09/17 07:36:39;;;;;;;5.95;2.40;;;;;;;24.47;56.36;94002.59;4992705;28;20566;-63
2022/09/17 07:39:04;;;;;;;6.38;2.25;;;;;;;25.03;55.60;94003.84;4995621;28;20049;-61
2022/09/17 07:41:30;;;;;;;7.30;2.30;;;;;;;25.50;55.35;94028.66;4986529;28;20515;-62
2022/09/17 07:43:56;;;;;;;4.43;2.17;;;;;;;25.49;54.28;93967.09;4984793;28;20035;-62
2022/09/17 07:46:22;;;;;;;6.18;2.95;;;;;;;25.26;55.96;94036.66;4992247;28;20046;-62
2022/09/17 07:48:47;;;;;;;6.32;2.85;;;;;;;25.34;55.24;93997.16;4993946;28;20050;-63
2022/09/17 07:51:15;;;;;;;6.75;2.72;;;;;;;24.82;57.13;94044.19;4986123;28;20036;-62
2022/09/17 07:53:40;;;;;;;6.55;2.80;;;;;;;24.84;57.24;94036.22;5003766;28;20045;-62
2022/09/17 07:56:06;;;;;;;10.48;2.53;;;;;;;25.37;56.29;94048.00;4998796;28;20030;-61
2022/09/17 07:58:33;;;;;;;8.63;2.72;;;;;;;25.91;54.77;94048.19;4983523;28;20133;-61
2022/09/17 08:01:02;;;;;;;5.65;2.63;;;;;;;25.72;54.36;93984.22;4966124;28;20139;-60
2022/09/17 08:03:27;;;;;;;6.57;2.20;;;;;;;25.88;53.84;93991.84;5002027;28;20080;-61
2022/09/17 08:05:53;;;;;;;5.32;2.42;;;;;;;26.22;53.74;94036.66;4981629;28;20023;-61
2022/09/17 08:08:19;;;;;;;5.43;2.17;;;;;;;26.10;53.81;94007.47;4983332;28;20069;-61
2022/09/17 08:10:44;;;;;;;5.25;2.30;;;;;;;26.26;53.21;94004.16;5000063;28;20751;-62
2022/09/17 08:13:10;;;;;;;5.70;2.55;;;;;;;26.11;53.03;93987.75;4990681;28;20038;-61
2022/09/17 08:15:37;;;;;;;7.03;2.10;;;;;;;26.18;53.33;93992.50;5002460;28;20510;-61
2022/09/17 08:18:02;;;;;;;6.15;2.00;;;;;;;26.02;53.18;93941.84;4983692;28;20046;-61
2022/09/17 08:20:28;;;;;;;5.30;1.80;;;;;;;26.56;52.87;94031.44;5002907;28;20046;-62
2022/09/17 08:22:58;;;;;;;6.10;1.73;;;;;;;26.42;52.85;94016.53;5001475;28;20046;-60
2022/09/17 08:25:24;;;;;;;4.75;1.80;;;;;;;25.65;53.71;94006.81;5005488;28;20292;-59
2022/09/17 08:27:53;;;;;;;4.03;1.40;;;;;;;25.28;52.47;93903.69;4990622;28;20468;-60
2022/09/17 08:30:19;;;;;;;5.32;1.92;;;;;;;25.67;53.56;94012.50;4988229;28;20030;-59
2022/09/17 08:32:44;;;;;;;5.78;1.45;;;;;;;26.18;51.94;93991.78;4995213;28;20422;-61
2022/09/17 08:35:10;;;;;;;6.07;1.50;;;;;;;26.50;51.59;94011.75;4985545;28;20415;-61
2022/09/17 08:37:36;;;;;;;5.10;1.30;;;;;;;25.74;53.55;94022.69;4985111;28;20050;-60
2022/09/17 08:40:01;;;;;;;3.13;1.23;;;;;;;25.40;53.65;94014.09;4979876;28;20406;-61
2022/09/17 08:42:31;;;;;;;5.25;1.25;;;;;;;25.18;53.27;93926.66;4978424;28;20502;-61
2022/09/17 08:44:57;;;;;;;;;;;;;;;26.40;51.12;94021.84;4965336;28;20030;-61
2022/09/17 08:47:28;;;;;;;3.28;1.30;;;;;;;26.52;50.74;94009.22;4981452;28;19956;-61
2022/09/17 08:49:57;;;;;;;3.53;1.50;;;;;;;26.78;49.76;94010.16;4960591;28;20037;-61
2022/09/17 08:52:35;;;;;;;4.40;1.40;;;;;;;26.76;49.92;94001.78;4985301;28;20038;-62
2022/09/17 08:55:35;;;;;;;3.90;1.35;;;;;;;26.95;49.91;93999.34;4993250;28;20543;-62
2022/09/17 08:58:15;;;;;;;;;;;;;;;26.88;49.83;94019.25;4984439;28;20124;-61
2022/09/17 09:00:50;;;;;;;4.63;1.63;;;;;;;26.93;49.76;94004.63;4982461;28;19985;-60
2022/09/17 09:03:37;;;;;;;5.43;1.27;;;;;;;26.84;49.86;94002.47;4947963;28;20061;-62
2022/09/17 09:06:02;;;;;;;4.43;1.40;;;;;;;26.80;49.55;93985.69;4982664;28;20030;-61
2022/09/17 09:08:29;;;;;;;3.75;1.60;;;;;;;26.80;49.57;93996.66;4980678;28;20104;-61
2022/09/17 09:10:57;;;;;;;4.38;1.52;;;;;;;26.94;49.72;94006.09;4972378;28;20038;-61
2022/09/17 09:13:24;;;;;;;5.50;1.60;;;;;;;26.91;49.71;93999.00;4996273;28;20042;-61
2022/09/17 09:16:20;;;;;;;4.90;1.40;;;;;;;26.97;50.43;94029.66;4989727;28;20084;-63
2022/09/17 09:18:45;;;;;;;8.07;1.40;;;;;;;26.60;50.51;93972.28;4966553;28;20046;-61
2022/09/17 09:21:49;;;;;;;3.97;1.55;;;;;;;27.12;50.64;94037.06;4962877;28;20038;-61
2022/09/17 09:24:25;;;;;;;5.05;1.77;;;;;;;27.13;50.98;94036.50;4978613;28;20077;-61
2022/09/17 09:27:22;;;;;;;6.47;1.77;;;;;;;27.18;51.45;94049.25;4979833;28;20097;-60
2022/09/17 09:30:02;;;;;;;5.53;1.60;;;;;;;27.11;52.04;94066.47;4981409;28;20046;-60
2022/09/17 09:32:31;;;;;;;8.50;1.92;;;;;;;27.11;52.39;94063.00;4999809;28;20092;-60
2022/09/17 09:35:02;;;;;;;6.65;1.60;;;;;;;26.75;52.52;94015.31;5000141;28;20536;-61
2022/09/17 09:37:30;;;;;;;4.38;1.85;;;;;;;27.23;52.25;94075.72;4967301;28;20077;-60
2022/09/17 09:40:15;;;;;;;7.03;1.88;;;;;;;26.70;51.93;94030.69;4947862;28;20476;-60
2022/09/17 09:42:40;;;;;;;5.55;2.00;;;;;;;26.71;53.08;94053.31;4960908;28;20426;-61
2022/09/17 09:45:12;;;;;;;5.65;2.10;;;;;;;26.68;53.76;94060.63;4962101;28;20030;-61
2022/09/17 09:47:43;;;;;;;4.57;2.30;;;;;;;26.49;54.75;94092.47;4964452;28;20546;-61
2022/09/17 09:50:17;;;;;;;6.20;2.30;;;;;;;26.42;54.75;94109.63;4989772;28;20584;-61
2022/09/17 09:53:03;;;;;;;5.80;2.60;;;;;;;25.85;54.78;94026.50;5000300;28;20046;-61
2022/09/17 09:55:44;;;;;;;6.90;2.70;;;;;;;26.18;55.62;94106.72;4984899;28;20044;-60
2022/09/17 09:58:35;;;;;;;8.77;3.25;;;;;;;25.86;58.05;94109.31;4965229;28;20052;-59
2022/09/17 10:01:01;;;;;;;6.57;2.83;;;;;;;25.50;57.49;94034.13;4993524;28;20104;-60
2022/09/17 10:03:31;;;;;;;7.80;3.47;;;;;;;25.98;58.74;94083.03;4998709;28;20041;-61
2022/09/17 10:06:04;;;;;;;6.95;3.45;;;;;;;25.79;57.97;94050.56;4976477;28;20026;-60
2022/09/17 10:08:38;;;;;;;6.22;3.28;;;;;;;25.11;60.99;94015.53;4980248;28;20848;-60
2022/09/17 10:11:12;;;;;;;6.75;2.88;;;;;;;24.54;65.05;94007.34;4964129;28;20077;-60
2022/09/17 10:13:39;;;;;;;12.52;5.50;;;;;;;25.28;60.77;94004.81;4999355;28;20037;-60
2022/09/17 10:16:19;;;;;;;15.75;6.65;;;;;;;25.32;59.35;94005.91;4971149;28;20038;-61
2022/09/17 10:18:46;;;;;;;57.33;21.52;;;;;;;25.26;59.72;93988.22;4994703;28;20042;-60
2022/09/17 10:21:33;;;;;;;25.23;10.40;;;;;;;25.12;59.53;93973.25;4968306;28;20084;-60
2022/09/17 10:23:59;;;;;;;23.05;9.15;;;;;;;24.82;59.94;93934.97;4968714;28;20470;-60
2022/09/17 10:26:31;;;;;;;17.10;6.53;;;;;;;25.24;59.38;93952.50;4962437;28;20427;-61
2022/09/17 10:29:04;;;;;;;13.55;5.30;;;;;;;24.81;60.19;93932.06;4991903;28;20455;-60
2022/09/17 10:31:47;;;;;;;11.77;4.68;;;;;;;24.04;62.74;93950.72;4974698;28;20435;-60
2022/09/17 10:34:26;;;;;;;7.60;3.42;;;;;;;24.31;60.63;93913.00;4952657;28;20042;-60
2022/09/17 10:36:51;;;;;;;11.10;3.80;;;;;;;24.39;61.28;93958.16;4946444;28;20126;-59
2022/09/17 10:39:30;;;;;;;7.55;3.40;;;;;;;24.47;60.86;93945.28;4979405;28;20034;-61
2022/09/17 10:42:00;;;;;;;7.80;3.20;;;;;;;24.61;60.23;93941.13;4991588;28;20026;-61
2022/09/17 10:44:28;;;;;;;7.65;2.60;;;;;;;24.46;60.39;93930.16;5000695;28;20799;-60
2022/09/17 10:46:54;;;;;;;6.35;2.95;;;;;;;24.35;59.85;93892.31;4988095;28;20065;-61
2022/09/17 10:49:36;;;;;;;5.40;2.58;;;;;;;24.55;59.81;93894.16;4964044;28;20042;-63
2022/09/17 10:52:09;;;;;;;5.80;2.75;;;;;;;24.52;60.32;93933.47;4983276;28;20057;-59
2022/09/17 10:54:48;;;;;;;8.05;3.08;;;;;;;24.31;60.68;93935.56;4982690;28;21055;-61
2022/09/17 10:57:19;;;;;;;6.03;2.15;;;;;;;23.29;61.97;93826.22;4974827;28;20073;-60
2022/09/17 11:00:06;;;;;;;4.53;2.25;;;;;;;23.64;63.38;93918.88;4951018;28;20045;-60
2022/09/17 11:02:38;;;;;;;6.00;2.20;;;;;;;23.99;62.33;93932.53;4997622;28;20034;-60
2022/09/17 11:05:25;;;;;;;5.55;2.47;;;;;;;24.14;61.96;93948.97;4999202;28;20442;-60
2022/09/17 11:07:54;;;;;;;4.28;2.40;;;;;;;24.44;61.02;93965.47;4987311;28;20129;-60
2022/09/17 11:10:33;;;;;;;7.32;3.05;;;;;;;24.47;61.33;93964.38;4953635;28;20070;-60
2022/09/17 11:13:10;;;;;;;5.40;2.60;;;;;;;24.38;61.13;93959.44;4982288;28;20022;-60
2022/09/17 11:15:46;;;;;;;8.60;5.22;;;;;;;23.86;61.18;93890.31;4975566;28;20046;-60
2022/09/17 11:18:34;;;;;;;8.02;4.40;;;;;;;24.03;61.43;93919.25;4945261;28;20089;-62
2022/09/17 11:21:37;;;;;;;9.55;4.22;;;;;;;24.15;62.63;93960.59;4968520;28;20042;-62
2022/09/17 11:24:24;;;;;;;9.00;3.80;;;;;;;24.38;62.04;93973.09;5000595;28;20125;-61
2022/09/17 11:27:27;;;;;;;6.75;4.10;;;;;;;24.34;61.92;93980.88;4989230;28;20047;-61
2022/09/17 11:30:03;;;;;;;7.05;3.03;;;;;;;24.18;62.74;93971.16;4996332;28;20045;-61
2022/09/17 11:33:13;;;;;;;6.45;3.03;;;;;;;24.27;61.54;93978.81;4974019;28;20038;-60
2022/09/17 11:35:40;;;;;;;4.97;2.90;;;;;;;23.99;62.56;93965.25;4929964;28;20132;-61
2022/09/17 11:38:28;;;;;;;5.32;2.63;;;;;;;24.04;62.68;93950.72;4965156;28;20057;-61
2022/09/17 11:41:28;;;;;;;4.82;2.50;;;;;;;24.29;61.83;93957.19;4985358;28;20094;-60
2022/09/17 11:43:56;;;;;;;6.03;2.42;;;;;;;24.22;61.66;93960.63;4937062;28;20543;-62
2022/09/17 11:46:40;;;;;;;8.55;2.55;;;;;;;23.93;61.89;93921.06;4996345;28;20034;-62
2022/09/17 11:49:25;;;;;;;6.55;2.75;;;;;;;24.15;62.47;93942.22;4978288;28;20037;-61